Time;durP1;ratioP1;P1;durP2;ratioP2;P2;SDS_P1;SDS_P2;PMS_P1;PMS_P2;Temp;Humidity;BMP_temperature;BMP_pressure;BME280_temperature;BME280_humidity;BME280_pressure;Samples;Min_cycle;Max_cycle;Signal;HPM_P1;HPM_P2
2024/02/07 00:01:39;;;;;;;5.97;2.03;;;8.30;62.00;;;3.50;100.00;95626.69;4930610;29;20114;-50
2024/02/07 00:04:05;;;;;;;2.85;1.92;;;8.30;61.80;;;3.52;100.00;95620.19;4931011;29;20367;-54
2024/02/07 00:06:31;;;;;;;3.92;1.60;;;8.40;61.70;;;3.55;100.00;95616.31;4948220;28;20035;-57
2024/02/07 00:08:57;;;;;;;2.58;2.08;;;8.40;61.60;;;3.58;100.00;95626.41;4935517;29;20085;-55
2024/02/07 00:11:23;;;;;;;3.00;1.70;;;8.40;61.50;;;3.60;100.00;95617.22;4932894;29;20023;-56
2024/02/07 00:13:49;;;;;;;3.08;1.95;;;8.40;61.40;;;3.55;100.00;95609.19;4935362;29;20049;-57
2024/02/07 00:16:15;;;;;;;2.63;2.10;;;8.40;61.30;;;3.49;100.00;95602.19;4930446;29;20507;-57
2024/02/07 00:18:41;;;;;;;3.88;2.00;;;8.40;61.20;;;3.40;100.00;95595.59;4935577;29;20023;-57
2024/02/07 00:21:09;;;;;;;2.70;1.90;;;8.40;61.10;;;3.31;100.00;95595.06;4936238;29;20413;-47
2024/02/07 00:23:35;;;;;;;3.28;2.15;;;8.30;61.00;;;3.23;100.00;95601.44;4928202;29;20019;-48
2024/02/07 00:26:01;;;;;;;4.10;2.42;;;8.20;60.90;;;3.08;100.00;95593.06;4932689;29;20051;-48
2024/02/07 00:28:27;;;;;;;3.28;2.50;;;8.10;60.90;;;2.97;100.00;95602.47;4932845;29;20441;-50
2024/02/07 00:30:53;;;;;;;4.32;2.58;;;8.00;60.80;;;2.93;100.00;95597.88;4931705;29;20074;-49
2024/02/07 00:33:19;;;;;;;3.90;2.22;;;7.90;60.90;;;2.87;100.00;95596.09;4932258;29;20538;-50
2024/02/07 00:35:45;;;;;;;4.10;2.95;;;7.80;60.80;;;2.70;100.00;95595.84;4933883;29;20497;-49
2024/02/07 00:38:11;;;;;;;4.63;3.10;;;7.70;60.70;;;2.54;100.00;95595.34;4931054;29;20019;-48
2024/02/07 00:40:37;;;;;;;5.38;3.40;;;7.60;60.70;;;2.41;100.00;95603.31;4933583;29;20035;-52
2024/02/07 00:43:03;;;;;;;5.18;3.10;;;7.50;60.80;;;2.40;100.00;95598.28;4931718;29;20150;-48
2024/02/07 00:45:30;;;;;;;4.55;3.15;;;7.40;61.20;;;2.41;100.00;95597.25;4932661;29;20038;-50
2024/02/07 00:47:56;;;;;;;5.60;3.22;;;7.40;61.30;;;2.35;100.00;95601.56;4933382;28;20026;-54
2024/02/07 00:50:22;;;;;;;5.55;2.92;;;7.30;61.40;;;2.29;100.00;95594.50;4927208;29;20478;-49
2024/02/07 00:52:48;;;;;;;4.68;2.78;;;7.20;61.60;;;2.24;100.00;95587.25;4933784;29;20029;-52
2024/02/07 00:55:14;;;;;;;5.03;2.97;;;7.10;61.80;;;2.22;100.00;95575.31;4934004;29;20023;-53
2024/02/07 00:57:40;;;;;;;5.78;2.70;;;7.10;62.00;;;2.16;100.00;95576.16;4938829;28;20023;-48
2024/02/07 01:00:13;;;;;;;4.60;3.08;;;7.10;62.20;;;2.21;100.00;95573.72;4924735;29;20032;-49
2024/02/07 01:02:41;;;;;;;4.07;2.83;;;7.00;62.40;;;2.20;100.00;95570.28;4932517;29;20242;-51
2024/02/07 01:05:09;;;;;;;5.35;3.20;;;7.00;62.60;;;2.24;100.00;95570.66;4937499;28;20395;-55
2024/02/07 01:07:36;;;;;;;5.28;3.25;;;7.00;62.70;;;2.23;100.00;95575.13;4930355;29;20126;-50
2024/02/07 01:10:01;;;;;;;6.32;3.30;;;7.00;62.90;;;2.27;100.00;95586.03;4931087;29;20078;-51
2024/02/07 01:12:27;;;;;;;4.85;3.42;;;7.00;62.90;;;2.29;100.00;95586.63;4931222;29;20034;-53
2024/02/07 01:14:53;;;;;;;4.05;2.78;;;7.00;62.90;;;2.23;100.00;95588.28;4948093;28;20027;-52
2024/02/07 01:17:19;;;;;;;4.60;3.30;;;7.00;62.90;;;2.24;100.00;95595.13;4929904;29;20112;-57
2024/02/07 01:19:50;;;;;;;6.05;3.83;;;7.00;62.90;;;2.23;100.00;95585.63;4949621;28;20070;-52
2024/02/07 01:22:16;;;;;;;5.07;3.15;;;6.90;62.80;;;2.18;100.00;95571.53;4932525;29;20031;-53
2024/02/07 01:24:42;;;;;;;4.63;3.63;;;7.00;62.90;;;2.12;100.00;95567.91;4931171;29;20025;-56
2024/02/07 01:27:09;;;;;;;6.38;4.07;;;6.90;62.80;;;2.07;100.00;95562.50;4927870;29;20034;-52
2024/02/07 01:29:35;;;;;;;5.40;3.90;;;6.90;62.80;;;2.00;100.00;95554.63;4933413;29;20549;-56
2024/02/07 01:32:01;;;;;;;5.78;4.10;;;6.90;62.80;;;1.97;100.00;95562.13;4929497;29;20027;-56
2024/02/07 01:34:27;;;;;;;6.15;4.00;;;6.80;62.80;;;1.92;100.00;95557.53;4932089;29;20387;-50
2024/02/07 01:36:54;;;;;;;5.35;4.03;;;6.80;62.90;;;1.91;100.00;95571.66;4926368;29;20446;-51
2024/02/07 01:39:19;;;;;;;6.38;4.70;;;6.70;63.00;;;1.91;100.00;95560.34;4934372;28;20109;-57
2024/02/07 01:41:58;;;;;;;7.03;4.20;;;6.70;63.10;;;1.89;100.00;95563.19;4928845;29;20175;-54
2024/02/07 01:44:30;;;;;;;5.38;3.50;;;6.70;63.20;;;1.88;100.00;95569.47;4931180;29;20114;-53
2024/02/07 01:47:11;;;;;;;7.25;3.80;;;6.70;63.20;;;1.81;100.00;95564.22;4930607;29;20669;-52
2024/02/07 01:49:50;;;;;;;5.63;4.20;;;6.60;63.20;;;1.78;100.00;95555.97;4942763;28;20031;-54
2024/02/07 01:52:25;;;;;;;6.18;4.25;;;6.60;63.30;;;1.77;100.00;95554.38;4947753;28;20150;-55
2024/02/07 01:54:55;;;;;;;6.28;4.65;;;6.60;63.30;;;1.69;100.00;95541.47;4932681;29;20019;-57
2024/02/07 01:57:23;;;;;;;7.25;4.80;;;6.50;63.30;;;1.61;100.00;95545.94;4926269;29;20027;-56
2024/02/07 01:59:50;;;;;;;6.70;4.70;;;6.50;63.30;;;1.58;100.00;95548.19;4933033;28;20031;-53
2024/02/07 02:02:17;;;;;;;9.50;5.18;;;6.50;63.40;;;1.58;100.00;95546.38;4930934;29;20038;-54
2024/02/07 02:04:43;;;;;;;7.43;5.10;;;6.40;63.60;;;1.60;100.00;95546.97;4932906;29;20034;-51
2024/02/07 02:07:09;;;;;;;7.43;4.68;;;6.40;63.80;;;1.58;100.00;95543.75;4930771;29;20026;-55
2024/02/07 02:09:35;;;;;;;10.25;5.82;;;6.40;63.80;;;1.54;100.00;95539.13;4933492;29;20026;-55
2024/02/07 02:12:02;;;;;;;8.95;5.53;;;6.40;63.80;;;1.45;100.00;95535.94;4943941;28;20078;-48
2024/02/07 02:14:29;;;;;;;8.75;5.70;;;6.30;63.70;;;1.39;100.00;95528.88;4936733;28;20273;-49
2024/02/07 02:16:55;;;;;;;8.18;5.45;;;6.30;63.70;;;1.32;100.00;95521.03;4929182;29;20035;-52
2024/02/07 02:19:21;;;;;;;10.50;6.00;;;6.20;63.70;;;1.28;100.00;95522.44;4933704;29;20047;-51
2024/02/07 02:22:45;;;;;;;8.60;5.97;;;6.20;63.80;;;1.26;100.00;95513.19;4933421;29;20077;-50
2024/02/07 02:25:49;;;;;;;10.68;5.65;;;6.20;63.90;;;1.21;100.00;95515.63;4928149;29;20039;-54
2024/02/07 02:28:36;;;;;;;9.80;6.25;;;6.10;64.10;;;1.18;100.00;95510.78;4927305;28;20034;-54
2024/02/07 02:31:13;;;;;;;12.00;7.28;;;6.00;64.00;;;1.14;100.00;95510.41;4943712;28;20050;-51
2024/02/07 02:33:41;;;;;;;9.60;6.00;;;6.00;65.00;;;1.12;100.00;95500.09;4927284;29;20090;-56
2024/02/07 02:36:08;;;;;;;9.95;5.88;;;6.00;64.20;;;1.09;100.00;95504.97;4944307;28;20144;-51
2024/02/07 02:38:36;;;;;;;11.98;7.20;;;6.00;64.30;;;1.07;100.00;95497.31;4931689;29;20027;-53
2024/02/07 02:41:08;;;;;;;13.95;8.02;;;5.90;64.30;;;1.12;100.00;95497.47;4944355;28;20031;-53
2024/02/07 02:43:40;;;;;;;;;;;5.90;64.50;;;1.16;100.00;95484.78;4933623;29;20027;-53
2024/02/07 02:46:09;;;;;;;14.70;6.65;;;6.00;64.50;;;1.18;100.00;95489.81;4928798;29;19906;-55
2024/02/07 02:48:35;;;;;;;12.45;6.95;;;6.00;64.60;;;1.12;100.00;95483.56;4921726;29;20035;-55
2024/02/07 02:51:02;;;;;;;8.32;5.63;;;6.00;64.60;;;1.04;100.00;95486.44;4926322;29;20118;-53
2024/02/07 02:53:32;;;;;;;12.35;7.03;;;5.90;64.40;;;1.04;100.00;95478.56;4929518;29;20118;-50
2024/02/07 02:55:59;;;;;;;10.70;6.63;;;6.00;64.50;;;1.09;100.00;95484.78;4932048;29;20027;-54
2024/02/07 02:58:29;;;;;;;14.40;6.63;;;5.90;64.70;;;1.09;100.00;95490.03;4931966;29;20301;-57
2024/02/07 03:00:57;;;;;;;9.63;5.85;;;6.00;64.80;;;1.07;100.00;95480.78;4932133;29;20011;-50
2024/02/07 03:03:24;;;;;;;11.13;6.90;;;6.00;64.70;;;1.03;100.00;95477.72;4930429;29;20027;-51
2024/02/07 03:05:59;;;;;;;10.15;6.28;;;6.00;64.60;;;0.97;100.00;95469.88;4921240;29;20023;-50
2024/02/07 03:08:39;;;;;;;9.80;5.85;;;6.00;64.60;;;0.95;100.00;95472.72;4933583;29;20070;-52
2024/02/07 03:11:08;;;;;;;10.45;6.68;;;5.90;64.50;;;0.94;100.00;95460.63;4940004;28;20019;-52
2024/02/07 03:13:35;;;;;;;11.18;6.90;;;5.90;64.50;;;0.96;100.00;95452.56;4932919;29;20054;-52
2024/02/07 03:16:04;;;;;;;12.80;7.90;;;5.90;64.70;;;1.01;100.00;95463.25;4941616;28;20134;-52
2024/02/07 03:18:30;;;;;;;12.88;7.65;;;5.90;64.90;;;1.10;100.00;95460.16;4939406;23;20462;-59
2024/02/07 03:20:55;;;;;;;11.38;6.53;;;5.90;65.10;;;1.17;100.00;95461.97;4929696;29;20117;-58
2024/02/07 03:23:22;;;;;;;11.35;6.82;;;6.00;65.20;;;1.17;100.00;95456.72;4929203;29;20024;-58
2024/02/07 03:25:47;;;;;;;11.82;6.88;;;6.00;65.20;;;1.14;100.00;95450.06;4923361;29;20031;-55
2024/02/07 03:28:16;;;;;;;9.35;5.88;;;6.00;65.10;;;1.00;100.00;95443.25;4935291;28;20038;-59
2024/02/07 03:30:42;;;;;;;9.13;5.90;;;6.00;64.80;;;0.96;100.00;95440.22;4949709;28;20030;-58
2024/02/07 03:33:07;;;;;;;11.68;6.07;;;6.00;64.60;;;0.91;100.00;95442.69;4950875;28;20033;-58
2024/02/07 03:35:33;;;;;;;12.25;6.85;;;6.00;64.60;;;0.86;100.00;95429.38;4947999;29;20084;-59
2024/02/07 03:38:00;;;;;;;10.50;6.13;;;5.90;64.50;;;0.81;100.00;95434.44;4951109;28;20035;-58
2024/02/07 03:40:26;;;;;;;9.80;5.53;;;5.90;64.40;;;0.71;100.00;95434.06;4939527;29;20030;-58
2024/02/07 03:42:52;;;;;;;9.25;6.28;;;5.90;64.30;;;0.61;100.00;95424.81;4942412;29;20023;-59
2024/02/07 03:45:18;;;;;;;11.82;7.38;;;5.80;64.20;;;0.55;100.00;95432.69;4945894;29;20500;-56
2024/02/07 03:47:46;;;;;;;14.65;7.63;;;5.70;64.20;;;0.56;100.00;95423.81;4947639;28;20062;-57
2024/02/07 03:50:16;;;;;;;12.63;7.57;;;5.70;64.30;;;0.56;100.00;95429.84;4950329;28;20466;-56
2024/02/07 03:52:44;;;;;;;11.93;7.07;;;5.70;64.60;;;0.55;100.00;95419.59;4944744;28;20031;-58
2024/02/07 03:55:12;;;;;;;10.15;6.57;;;5.60;64.70;;;0.53;100.00;95417.16;4941282;28;20023;-56
2024/02/07 03:57:43;;;;;;;13.13;7.22;;;5.60;64.70;;;0.50;100.00;95414.94;4944043;28;20038;-56
2024/02/07 04:00:13;;;;;;;14.52;7.82;;;5.60;64.80;;;0.53;100.00;95416.38;4946473;28;20015;-56
2024/02/07 04:02:47;;;;;;;15.27;8.77;;;5.60;65.00;;;0.65;100.00;95419.97;4950297;28;20077;-57
2024/02/07 04:05:13;;;;;;;13.98;8.65;;;5.60;65.30;;;0.76;100.00;95414.09;4949800;28;20443;-54
2024/02/07 04:07:39;;;;;;;10.20;6.68;;;5.60;65.60;;;0.80;100.00;95404.00;4948599;28;20051;-58
2024/02/07 04:10:09;;;;;;;11.80;7.20;;;5.80;66.50;;;0.83;100.00;95403.56;4958822;28;20050;-58
2024/02/07 05:15:53;;;;;;;10.23;6.03;;;6.00;66.40;;;1.23;100.00;95361.41;4948567;28;20037;-60
2024/02/07 05:18:20;;;;;;;9.55;5.47;;;6.10;65.90;;;1.28;100.00;95365.00;4951932;28;20520;-57
2024/02/07 05:20:48;;;;;;;13.15;6.50;;;6.10;65.80;;;1.35;100.00;95372.84;4948690;28;20393;-59
2024/02/07 05:23:22;;;;;;;10.40;5.55;;;6.20;65.90;;;1.42;100.00;95370.97;4949457;28;20033;-59
2024/02/07 05:25:48;;;;;;;11.75;5.47;;;6.30;66.00;;;1.51;100.00;95374.16;4952631;28;20165;-59
2024/02/07 05:28:15;;;;;;;11.07;5.85;;;6.30;66.70;;;1.59;100.00;95363.38;4948377;28;20129;-60
2024/02/07 05:30:41;;;;;;;12.55;6.03;;;6.40;65.90;;;1.64;100.00;95368.81;4945650;28;20043;-58
2024/02/07 05:33:08;;;;;;;12.38;5.80;;;6.50;66.00;;;1.70;100.00;95365.31;4951530;28;20031;-59
2024/02/07 05:35:34;;;;;;;9.45;5.38;;;6.50;65.90;;;1.74;100.00;95356.00;4951887;28;20029;-55
2024/02/07 05:38:01;;;;;;;8.55;5.43;;;6.60;65.90;;;1.83;100.00;95359.97;4948163;28;20023;-58
2024/02/07 05:40:27;;;;;;;8.90;5.45;;;6.60;65.90;;;1.94;100.00;95360.25;4950316;28;20544;-56
2024/02/07 05:42:53;;;;;;;9.75;5.13;;;6.70;66.00;;;2.05;100.00;95359.56;4950612;28;20031;-56
2024/02/07 05:45:19;;;;;;;8.38;5.30;;;6.70;66.00;;;2.12;100.00;95359.50;4948447;28;20029;-60
2024/02/07 05:47:45;;;;;;;12.43;5.50;;;6.80;66.00;;;2.17;100.00;95360.47;4949222;28;20472;-60
2024/02/07 05:50:11;;;;;;;10.48;5.50;;;6.80;65.80;;;2.24;100.00;95365.66;4950929;28;20110;-59
2024/02/07 05:52:39;;;;;;;9.32;5.10;;;6.90;65.90;;;2.28;100.00;95359.75;4947410;28;20034;-55
2024/02/07 05:55:07;;;;;;;8.82;4.78;;;7.00;65.80;;;2.32;100.00;95344.34;4950424;28;20027;-59
2024/02/07 05:57:33;;;;;;;11.43;5.00;;;7.00;65.70;;;2.39;100.00;95349.53;4944809;28;20039;-58
2024/02/07 06:00:04;;;;;;;11.32;5.00;;;7.10;65.70;;;2.43;100.00;95351.50;4951099;28;20041;-58
2024/02/07 06:02:31;;;;;;;9.13;4.85;;;7.10;65.60;;;2.49;100.00;95344.56;4938883;28;20046;-58
2024/02/07 06:05:03;;;;;;;12.60;4.97;;;7.10;65.60;;;2.55;100.00;95344.50;4958464;28;20034;-55
2024/02/07 06:07:30;;;;;;;9.17;4.90;;;7.20;65.50;;;2.61;100.00;95339.38;4949535;28;20433;-58
2024/02/07 06:09:56;;;;;;;9.82;5.60;;;7.20;65.50;;;2.66;100.00;95332.41;4950632;28;20084;-56
2024/02/07 06:12:23;;;;;;;9.70;4.72;;;7.30;66.30;;;2.67;100.00;95334.03;4948248;28;20453;-59
2024/02/07 06:14:49;;;;;;;8.73;4.95;;;7.30;65.30;;;2.75;100.00;95336.34;4952486;28;20029;-57
2024/02/07 06:17:15;;;;;;;8.88;4.55;;;7.40;65.30;;;2.77;100.00;95342.22;4946827;28;20042;-57
2024/02/07 06:19:40;;;;;;;7.40;4.55;;;7.40;65.30;;;2.83;100.00;95345.78;4945891;28;20026;-59
2024/02/07 06:22:07;;;;;;;11.57;4.68;;;7.50;65.20;;;2.88;100.00;95348.53;4950822;28;20054;-58
2024/02/07 06:24:32;;;;;;;10.48;5.00;;;7.50;65.20;;;2.96;100.00;95347.44;4950780;28;20027;-59
2024/02/07 06:26:59;;;;;;;9.98;4.63;;;7.60;65.20;;;3.06;100.00;95360.06;4947472;28;20042;-58
2024/02/07 06:29:25;;;;;;;10.57;4.75;;;7.60;65.00;;;3.12;100.00;95346.03;4948917;28;20031;-57
2024/02/07 06:31:51;;;;;;;9.68;4.40;;;7.80;65.10;;;3.20;100.00;95349.16;4945658;28;20027;-59
2024/02/07 06:34:17;;;;;;;7.13;4.38;;;7.80;65.00;;;3.27;100.00;95343.78;4951007;28;20034;-60
2024/02/07 06:36:43;;;;;;;10.05;5.10;;;7.90;64.90;;;3.32;100.00;95345.75;4944040;28;20357;-59
2024/02/07 06:39:09;;;;;;;7.78;4.43;;;8.00;64.80;;;3.42;100.00;95340.75;4942123;28;20031;-56
2024/02/07 06:41:34;;;;;;;7.25;4.38;;;8.10;64.70;;;3.49;100.00;95344.09;4944588;28;20092;-59
2024/02/07 06:44:00;;;;;;;12.50;5.22;;;8.10;64.60;;;3.55;100.00;95345.81;4942180;28;20054;-60
2024/02/07 06:46:28;;;;;;;8.70;4.50;;;8.20;64.50;;;3.57;100.00;95335.03;4936017;28;20046;-58
2024/02/07 06:48:54;;;;;;;6.72;4.20;;;8.20;64.30;;;3.61;100.00;95338.84;4946161;28;20021;-58
2024/02/07 06:51:20;;;;;;;8.45;4.32;;;8.30;64.20;;;3.62;100.00;95341.25;4939147;28;20035;-59
2024/02/07 06:53:45;;;;;;;7.47;4.40;;;8.30;64.00;;;3.65;100.00;95338.16;4939088;28;20022;-59
2024/02/07 06:56:12;;;;;;;10.95;4.05;;;8.40;64.00;;;3.67;100.00;95341.38;4939023;28;20423;-57
2024/02/07 06:58:37;;;;;;;7.50;4.47;;;8.40;63.90;;;3.68;100.00;95336.91;4939257;28;20030;-57
2024/02/07 07:01:03;;;;;;;9.85;5.05;;;8.40;63.80;;;3.71;100.00;95339.09;4946414;28;20026;-59
2024/02/07 07:03:30;;;;;;;9.85;4.50;;;8.50;63.70;;;3.76;100.00;95335.75;4938274;28;20108;-59
2024/02/07 07:05:58;;;;;;;11.90;4.32;;;8.50;63.50;;;3.73;100.00;95334.41;4947134;28;20027;-58
2024/02/07 07:08:24;;;;;;;8.60;4.50;;;8.60;63.40;;;3.79;100.00;95336.13;4932420;29;20023;-53
2024/02/07 07:10:50;;;;;;;7.72;4.35;;;8.60;63.20;;;3.79;100.00;95330.84;4936643;28;20401;-57
2024/02/07 07:13:15;;;;;;;10.77;4.20;;;8.60;63.20;;;3.84;100.00;95328.31;4932027;29;20031;-58
2024/02/07 07:15:41;;;;;;;9.85;4.22;;;8.70;63.00;;;3.89;100.00;95328.44;4942060;28;20029;-56
2024/02/07 07:18:08;;;;;;;7.60;4.35;;;8.70;63.00;;;3.92;99.96;95328.00;4944210;28;20444;-58
2024/02/07 07:20:34;;;;;;;8.43;4.15;;;8.80;62.90;;;3.96;100.00;95333.59;4944967;28;20038;-60
2024/02/07 07:23:02;;;;;;;6.90;3.95;;;8.80;62.70;;;3.99;99.23;95335.78;4939186;29;20034;-56
2024/02/07 07:25:28;;;;;;;8.63;4.53;;;8.80;62.60;;;4.05;99.63;95341.97;4944582;28;20031;-60
2024/02/07 07:27:54;;;;;;;9.32;3.97;;;8.90;62.50;;;4.10;99.21;95336.81;4941139;28;20038;-56
2024/02/07 07:30:19;;;;;;;8.10;4.45;;;8.90;62.40;;;4.15;98.54;95335.09;4942551;29;20385;-57
2024/02/07 07:32:47;;;;;;;13.05;4.50;;;9.00;62.30;;;4.23;97.55;95344.50;4942447;29;20031;-59
2024/02/07 07:35:13;;;;;;;13.55;4.43;;;9.10;62.20;;;4.30;96.87;95345.19;4947354;29;20041;-58
2024/02/07 07:37:39;;;;;;;8.02;4.53;;;9.20;62.10;;;4.37;96.92;95343.22;4938657;29;20170;-58
2024/02/07 07:40:06;;;;;;;5.22;3.72;;;9.20;61.90;;;4.45;96.67;95339.44;4946964;28;20031;-57
2024/02/07 07:42:32;;;;;;;9.60;3.83;;;9.30;61.80;;;4.45;95.53;95334.16;4947059;28;20027;-58
2024/02/07 07:44:58;;;;;;;7.57;3.80;;;9.40;61.60;;;4.48;94.41;95336.34;4946885;28;20030;-58
2024/02/07 07:47:25;;;;;;;5.72;3.50;;;9.50;61.30;;;4.53;94.68;95339.06;4936070;28;20038;-57
2024/02/07 07:49:51;;;;;;;8.00;3.90;;;9.50;61.10;;;4.61;94.44;95338.72;4940926;28;20069;-59
2024/02/07 07:52:17;;;;;;;13.55;4.18;;;9.60;61.00;;;4.69;93.97;95336.75;4948367;28;20038;-59
2024/02/07 07:54:43;;;;;;;7.40;4.68;;;9.60;60.80;;;4.78;94.82;95330.88;4947180;28;20034;-59
2024/02/07 07:57:09;;;;;;;5.55;3.70;;;9.70;60.90;;;4.86;94.99;95335.00;4969175;28;20440;-58
2024/02/07 07:59:34;;;;;;;7.32;3.90;;;9.80;60.80;;;4.85;94.45;95336.81;4952273;28;20030;-57
2024/02/07 08:02:01;;;;;;;7.05;3.90;;;9.80;60.60;;;4.89;93.76;95329.25;4953130;28;20109;-55
2024/02/07 08:04:28;;;;;;;9.68;4.18;;;9.80;60.50;;;4.88;93.91;95328.41;4947046;28;20029;-60
2024/02/07 08:06:57;;;;;;;10.98;4.50;;;9.80;60.50;;;4.86;93.85;95324.44;4949224;28;20039;-58
2024/02/07 08:09:23;;;;;;;5.63;3.25;;;9.80;60.40;;;4.85;94.82;95323.59;4947153;28;20462;-57
2024/02/07 08:11:49;;;;;;;6.03;3.40;;;9.80;60.40;;;4.84;95.34;95316.72;4940953;28;20122;-58
2024/02/07 08:14:15;;;;;;;6.88;3.25;;;9.70;60.40;;;4.86;96.53;95312.03;4948300;28;20042;-60
2024/02/07 08:16:43;;;;;;;9.82;3.83;;;9.80;60.50;;;4.93;96.69;95334.84;4949799;28;20114;-60
2024/02/07 08:19:14;;;;;;;8.10;4.25;;;9.80;60.50;;;4.92;95.03;95325.31;4937287;28;20035;-59
2024/02/07 08:21:40;;;;;;;8.73;3.90;;;9.80;60.50;;;4.98;95.56;95334.94;4943670;28;20027;-60
2024/02/07 08:24:06;;;;;;;6.50;3.83;;;9.80;60.50;;;5.01;95.65;95324.69;4952137;28;20030;-60
2024/02/07 08:26:32;;;;;;;7.50;3.40;;;9.80;60.50;;;5.06;97.15;95332.72;4946526;28;20038;-58
2024/02/07 08:28:58;;;;;;;8.48;4.00;;;9.80;61.40;;;5.06;97.34;95338.00;4939493;28;20027;-60
2024/02/07 08:31:24;;;;;;;9.02;3.30;;;9.80;60.60;;;5.01;96.83;95326.53;4945742;28;20390;-56
2024/02/07 08:33:49;;;;;;;11.85;3.53;;;9.90;60.70;;;5.03;97.65;95324.47;4935413;28;20034;-58
2024/02/07 08:36:15;;;;;;;7.93;3.80;;;9.90;60.60;;;5.06;97.36;95319.53;4939279;28;20078;-58
2024/02/07 08:38:41;;;;;;;8.65;3.17;;;9.90;60.70;;;5.02;97.36;95322.88;4948178;28;20022;-59
2024/02/07 08:41:07;;;;;;;7.30;3.60;;;9.90;60.70;;;5.03;95.23;95313.91;4945928;28;20030;-58
2024/02/07 08:43:33;;;;;;;8.48;3.55;;;9.90;60.70;;;5.12;96.21;95317.78;4938029;28;20030;-57
2024/02/07 08:45:59;;;;;;;6.55;3.67;;;9.90;60.60;;;5.16;96.57;95312.81;4938438;28;20101;-59
2024/02/07 08:48:25;;;;;;;7.43;3.83;;;9.90;60.70;;;5.16;95.54;95310.97;4946820;28;20542;-57
2024/02/07 08:50:51;;;;;;;7.85;4.13;;;9.90;60.60;;;5.22;95.14;95311.88;4937559;28;20023;-58
2024/02/07 08:53:16;;;;;;;7.72;3.42;;;10.00;60.60;;;5.23;94.85;95311.66;4937946;28;20432;-58
2024/02/07 08:55:42;;;;;;;6.13;3.15;;;10.00;60.50;;;5.27;93.86;95309.34;4934185;29;20068;-60
2024/02/07 08:58:08;;;;;;;8.13;3.30;;;10.10;60.20;;;5.38;94.40;95318.22;4940640;28;20030;-56
2024/02/07 09:00:36;;;;;;;5.38;3.10;;;10.20;60.20;;;5.43;92.80;95308.56;4938935;28;20100;-59
2024/02/07 09:03:02;;;;;;;9.20;3.13;;;10.30;60.00;;;5.48;91.74;95305.97;4937607;28;20031;-57
2024/02/07 09:05:28;;;;;;;8.20;3.20;;;10.40;59.80;;;5.57;91.54;95314.31;4943888;28;20030;-58
2024/02/07 09:07:54;;;;;;;6.30;3.60;;;10.60;59.70;;;5.65;91.74;95311.28;4941468;28;20397;-57
2024/02/07 09:10:22;;;;;;;7.93;3.20;;;10.60;59.60;;;5.68;89.83;95310.03;4937599;28;20031;-57
2024/02/07 09:12:48;;;;;;;8.20;3.50;;;10.70;59.50;;;5.71;90.10;95306.91;4934999;28;20398;-60
2024/02/07 09:15:14;;;;;;;8.23;3.65;;;10.90;59.30;;;5.82;88.96;95299.91;4943431;28;20022;-59
2024/02/07 09:17:40;;;;;;;7.95;3.20;;;11.00;59.10;;;5.90;89.49;95299.53;4945487;28;20138;-58
2024/02/07 09:20:07;;;;;;;7.65;3.85;;;11.10;59.00;;;5.89;87.87;95301.38;4937910;28;20086;-60
2024/02/07 09:22:33;;;;;;;8.15;3.65;;;11.20;58.80;;;5.96;86.04;95303.88;4939369;28;20149;-60
2024/02/07 09:24:59;;;;;;;6.45;3.42;;;11.30;58.30;;;6.00;85.59;95299.69;4947317;28;20030;-60
2024/02/07 09:27:25;;;;;;;6.70;3.75;;;11.40;58.10;;;6.11;85.26;95300.63;4945937;28;20815;-60
2024/02/07 09:29:53;;;;;;;6.57;3.20;;;11.50;57.80;;;6.20;85.65;95301.81;4936216;28;20031;-59
2024/02/07 09:32:19;;;;;;;8.23;3.63;;;11.60;57.70;;;6.30;85.17;95294.06;4942554;28;20031;-58
2024/02/07 09:34:45;;;;;;;7.70;3.50;;;11.70;57.60;;;6.29;82.23;95287.13;4948266;28;20022;-56
2024/02/07 09:37:11;;;;;;;6.53;3.50;;;11.80;57.40;;;6.34;83.97;95281.94;4941019;28;20041;-59
2024/02/07 09:39:37;;;;;;;7.40;3.60;;;11.90;57.00;;;6.45;83.97;95283.63;4936485;28;20019;-60
2024/02/07 09:42:07;;;;;;;8.15;4.20;;;12.00;56.90;;;6.57;82.57;95278.22;4958299;28;20031;-60
2024/02/07 09:44:43;;;;;;;8.30;4.07;;;12.20;56.70;;;6.66;82.63;95274.09;4945215;28;20030;-59
2024/02/07 09:47:16;;;;;;;6.20;3.78;;;12.30;56.40;;;6.72;82.68;95265.19;4941479;28;20421;-59
2024/02/07 09:49:44;;;;;;;;;;;12.40;56.20;;;6.86;82.62;95265.63;4937603;28;20069;-57
2024/02/07 09:52:12;;;;;;;8.68;4.28;;;12.50;56.50;;;6.91;82.49;95270.94;4941343;28;19913;-55
2024/02/07 09:54:39;;;;;;;9.60;4.00;;;12.70;56.30;;;6.97;82.27;95271.81;4941951;28;20114;-58
2024/02/07 09:57:05;;;;;;;8.55;4.00;;;12.70;56.10;;;7.01;81.36;95272.09;4937955;28;20532;-56
2024/02/07 09:59:36;;;;;;;6.28;3.95;;;12.80;56.00;;;7.02;80.31;95273.69;4939739;28;20026;-57
2024/02/07 10:02:09;;;;;;;8.77;4.03;;;12.80;55.90;;;7.00;80.17;95260.72;4957107;28;20153;-51
2024/02/07 10:04:48;;;;;;;7.53;3.92;;;12.80;55.60;;;6.92;78.79;95259.28;4943457;28;20031;-55
2024/02/07 10:07:14;;;;;;;8.68;3.85;;;12.70;55.20;;;6.86;79.43;95262.97;4944478;28;20043;-53
2024/02/07 10:09:40;;;;;;;7.57;4.00;;;12.60;55.20;;;6.76;79.63;95246.94;4956855;28;20386;-52
2024/02/07 10:12:11;;;;;;;8.38;3.65;;;12.60;55.00;;;6.88;79.34;95241.53;4939750;28;20495;-54
2024/02/07 10:14:40;;;;;;;6.20;3.67;;;12.60;54.90;;;6.89;79.16;95233.34;4946068;28;20138;-55
2024/02/07 10:17:06;;;;;;;9.52;3.97;;;12.60;54.80;;;6.97;79.08;95229.44;4938547;28;20037;-56
2024/02/07 10:19:33;;;;;;;6.68;3.72;;;12.70;54.60;;;7.03;78.97;95233.72;4934457;28;20110;-55
2024/02/07 10:21:59;;;;;;;7.60;3.72;;;12.80;54.50;;;7.15;77.92;95226.44;4936690;28;20027;-57
2024/02/07 10:24:32;;;;;;;6.97;3.75;;;13.00;54.30;;;7.54;77.84;95222.78;4942441;28;20026;-54
2024/02/07 10:26:58;;;;;;;7.72;3.67;;;13.40;54.10;;;8.06;74.15;95228.16;4938780;28;20104;-54
2024/02/07 10:29:25;;;;;;;6.78;3.40;;;14.00;53.90;;;8.42;72.21;95215.09;4948767;28;20121;-58
2024/02/07 10:31:55;;;;;;;7.55;3.72;;;14.50;53.30;;;8.61;71.22;95226.03;4946408;28;20038;-55
2024/02/07 10:34:23;;;;;;;5.78;3.20;;;14.80;52.40;;;8.83;69.05;95214.41;4945938;28;20030;-58
2024/02/07 10:36:58;;;;;;;7.00;3.20;;;15.10;51.90;;;8.92;67.99;95202.22;4950155;28;20023;-54
2024/02/07 10:39:25;;;;;;;9.13;3.03;;;15.40;51.00;;;9.22;67.95;95204.13;4941713;28;20049;-57
2024/02/07 10:41:51;;;;;;;5.25;3.03;;;15.70;50.60;;;9.32;66.79;95196.16;4943200;28;20592;-55
2024/02/07 10:44:17;;;;;;;5.10;3.22;;;15.80;50.00;;;9.21;65.63;95186.56;4945860;28;20113;-52
2024/02/07 10:46:43;;;;;;;10.23;3.40;;;15.90;49.20;;;9.25;65.87;95190.31;4948972;28;20373;-54
2024/02/07 10:49:10;;;;;;;7.53;3.15;;;16.00;48.40;;;9.36;64.72;95185.78;4951278;28;20023;-56
2024/02/07 10:51:40;;;;;;;6.78;3.10;;;16.10;48.10;;;9.33;65.06;95187.13;4948690;28;20030;-53
2024/02/07 10:54:08;;;;;;;4.82;2.97;;;16.20;47.10;;;9.57;64.47;95181.28;4943509;28;20437;-50
2024/02/07 10:56:37;;;;;;;6.25;3.10;;;16.30;47.00;;;9.64;64.44;95171.94;4948923;28;20023;-57
2024/02/07 10:59:06;;;;;;;4.75;3.08;;;16.50;46.90;;;9.69;63.53;95176.47;4947898;28;20109;-56
2024/02/07 11:01:33;;;;;;;8.20;3.58;;;16.60;46.70;;;9.81;64.27;95169.00;4948052;28;20085;-54
2024/02/07 11:04:00;;;;;;;6.60;3.35;;;16.50;46.70;;;9.93;63.58;95168.69;4951709;28;20141;-56
2024/02/07 11:06:27;;;;;;;5.05;2.95;;;16.60;46.70;;;9.98;63.59;95165.25;4948622;28;20386;-51
2024/02/07 11:08:59;;;;;;;6.43;3.40;;;16.50;46.40;;;9.82;63.08;95151.19;4949320;28;20142;-53
2024/02/07 11:11:27;;;;;;;9.25;3.65;;;16.50;46.30;;;9.70;64.37;95162.91;4945447;28;20019;-56
2024/02/07 11:13:56;;;;;;;5.93;3.20;;;16.40;46.20;;;9.67;64.59;95152.78;4945008;28;20034;-57
2024/02/07 11:16:23;;;;;;;4.97;3.10;;;16.20;46.30;;;9.55;64.36;95138.97;4945559;28;20101;-50
2024/02/07 11:18:50;;;;;;;6.15;3.47;;;16.10;46.20;;;9.35;65.29;95147.00;4962209;23;20049;-55
2024/02/07 11:21:34;;;;;;;6.25;2.97;;;16.00;46.20;;;9.40;66.11;95144.31;4946347;28;20036;-50
2024/02/07 11:24:03;;;;;;;6.00;3.38;;;15.90;46.30;;;9.53;65.22;95146.44;4950159;28;20030;-51
2024/02/07 11:26:31;;;;;;;5.55;3.10;;;15.90;46.50;;;9.39;65.22;95129.44;4963387;28;20401;-54
2024/02/07 11:28:57;;;;;;;5.72;3.50;;;16.00;46.30;;;9.34;65.10;95124.94;4950749;28;20053;-54
2024/02/07 11:31:24;;;;;;;4.82;3.20;;;16.00;46.20;;;9.43;65.26;95131.31;4951999;28;20473;-53